Time;durP1;ratioP1;P1;durP2;ratioP2;P2;SDS_P1;SDS_P2;PMS_P1;PMS_P2;Temp;Humidity;BMP_temperature;BMP_pressure;BME280_temperature;BME280_humidity;BME280_pressure;Samples;Min_cycle;Max_cycle;Signal;HPM_P1;HPM_P2
2024/02/14 00:00:37;;;;;;;8.75;2.42;;;6.40;99.90;;;;;;5006247;28;20711;-73
2024/02/14 00:03:03;;;;;;;4.60;2.63;;;6.30;99.90;;;;;;5006119;28;20136;-73
2024/02/14 00:05:28;;;;;;;9.50;3.10;;;6.40;99.90;;;;;;5006566;28;20110;-73
2024/02/14 00:07:54;;;;;;;3.95;2.65;;;6.30;99.90;;;;;;5009834;28;20495;-73
2024/02/14 00:10:20;;;;;;;6.00;2.45;;;6.40;99.90;;;;;;4999780;28;20056;-74
2024/02/14 00:12:47;;;;;;;6.88;3.20;;;6.40;99.90;;;;;;5024423;28;20088;-74
2024/02/14 00:15:13;;;;;;;5.35;2.42;;;6.40;99.90;;;;;;5020946;28;20149;-73
2024/02/14 00:17:38;;;;;;;5.22;2.78;;;6.40;99.90;;;;;;5022737;28;20131;-74
2024/02/14 00:20:05;;;;;;;3.72;2.75;;;6.40;99.90;;;;;;5029255;28;20497;-73
2024/02/14 00:22:31;;;;;;;6.15;2.83;;;6.50;99.90;;;;;;5008105;28;20468;-73
2024/02/14 00:24:57;;;;;;;3.63;2.47;;;6.50;99.90;;;;;;5007897;28;20622;-73
2024/02/14 00:27:27;;;;;;;4.38;2.67;;;6.50;99.90;;;;;;5001669;28;20092;-73
2024/02/14 00:29:53;;;;;;;7.55;2.70;;;6.50;99.90;;;;;;5025446;28;20049;-73
2024/02/14 00:32:19;;;;;;;6.93;2.58;;;6.50;99.90;;;;;;5021788;28;20427;-74
2024/02/14 00:34:45;;;;;;;13.45;3.63;;;6.50;99.90;;;;;;5008511;28;20041;-73
2024/02/14 00:37:11;;;;;;;4.68;2.78;;;6.50;99.90;;;;;;4993532;28;20056;-73
2024/02/14 00:39:37;;;;;;;8.85;3.17;;;6.50;99.90;;;;;;5021352;28;20052;-73
2024/02/14 00:42:08;;;;;;;3.38;2.55;;;6.50;99.90;;;;;;5004059;28;20494;-73
2024/02/14 00:44:34;;;;;;;4.18;2.95;;;6.50;99.90;;;;;;5007381;28;20482;-73
2024/02/14 00:47:02;;;;;;;6.60;2.83;;;6.50;99.90;;;;;;5007489;28;20045;-74
2024/02/14 00:49:28;;;;;;;5.53;2.75;;;6.50;99.90;;;;;;5003789;28;20053;-74
2024/02/14 00:51:54;;;;;;;5.38;2.63;;;6.50;99.90;;;;;;5009454;28;20466;-74
2024/02/14 00:54:20;;;;;;;3.15;2.58;;;6.50;99.90;;;;;;5012900;28;20056;-74
2024/02/14 00:56:46;;;;;;;5.45;3.08;;;6.50;99.90;;;;;;5024228;28;20121;-74
2024/02/14 00:59:12;;;;;;;5.15;2.88;;;6.50;99.90;;;;;;5008026;28;20402;-74
2024/02/14 01:01:39;;;;;;;7.00;3.08;;;6.60;99.90;;;;;;4986013;28;20040;-74
2024/02/14 01:04:04;;;;;;;5.00;2.83;;;6.60;99.90;;;;;;5023340;28;20044;-75
2024/02/14 01:06:31;;;;;;;3.80;3.30;;;6.60;99.90;;;;;;5016518;28;20045;-75
2024/02/14 01:08:57;;;;;;;5.07;3.20;;;6.50;99.90;;;;;;5001421;28;20116;-75
2024/02/14 01:11:22;;;;;;;5.28;3.17;;;6.60;99.90;;;;;;5016313;28;20136;-74
2024/02/14 01:13:48;;;;;;;7.05;3.08;;;6.60;99.90;;;;;;5037145;28;20053;-74
2024/02/14 01:16:14;;;;;;;7.32;3.47;;;6.60;99.90;;;;;;5004852;28;20091;-74
2024/02/14 01:18:40;;;;;;;4.03;3.50;;;6.50;99.90;;;;;;4996088;28;20055;-75
2024/02/14 01:21:06;;;;;;;3.47;2.80;;;6.60;99.90;;;;;;5028456;28;20052;-74
2024/02/14 01:23:32;;;;;;;5.00;3.05;;;6.60;99.90;;;;;;5008033;28;20423;-74
2024/02/14 01:25:58;;;;;;;5.65;2.97;;;6.50;99.90;;;;;;4980939;28;20049;-74
2024/02/14 01:28:24;;;;;;;4.45;2.72;;;6.60;99.90;;;;;;5010890;28;20044;-75
2024/02/14 01:30:51;;;;;;;8.00;2.90;;;6.60;99.90;;;;;;5002476;28;20084;-74
2024/02/14 01:33:16;;;;;;;5.68;2.67;;;6.50;99.90;;;;;;4988899;28;20053;-75
2024/02/14 01:35:42;;;;;;;11.27;2.95;;;6.60;99.90;;;;;;4996764;28;20048;-74
2024/02/14 01:38:08;;;;;;;5.63;2.88;;;6.50;99.90;;;;;;4987884;28;20050;-74
2024/02/14 01:40:34;;;;;;;3.03;2.70;;;6.50;99.90;;;;;;5016127;28;20041;-74
2024/02/14 01:43:00;;;;;;;8.18;3.08;;;6.60;99.90;;;;;;5003523;28;20136;-73
2024/02/14 01:45:27;;;;;;;2.75;2.55;;;6.60;99.90;;;;;;5003884;28;20060;-74
2024/02/14 01:47:53;;;;;;;6.78;3.08;;;6.60;99.90;;;;;;5004363;28;20123;-74
2024/02/14 01:50:28;;;;;;;5.47;2.70;;;6.60;99.90;;;;;;4991704;28;20043;-75
2024/02/14 01:52:55;;;;;;;4.75;3.42;;;6.60;99.90;;;;;;5005999;28;20076;-74
2024/02/14 01:55:21;;;;;;;5.90;3.78;;;6.60;99.90;;;;;;5017802;28;20512;-75
2024/02/14 01:57:48;;;;;;;4.60;3.20;;;6.70;99.90;;;;;;5034147;28;20550;-74
2024/02/14 02:00:17;;;;;;;5.32;3.28;;;6.60;99.90;;;;;;5016280;28;20046;-74
2024/02/14 02:02:44;;;;;;;3.72;3.13;;;6.70;99.90;;;;;;4985656;28;20860;-74
2024/02/14 02:05:10;;;;;;;5.00;3.53;;;6.60;99.90;;;;;;5005442;28;20085;-74
2024/02/14 02:07:39;;;;;;;7.65;3.58;;;6.60;99.90;;;;;;5002678;28;20128;-74
2024/02/14 02:10:06;;;;;;;3.50;3.23;;;6.70;99.90;;;;;;5002635;28;20034;-75
2024/02/14 02:12:32;;;;;;;8.65;3.13;;;6.70;99.90;;;;;;4992923;28;20068;-75
2024/02/14 02:14:58;;;;;;;4.68;3.20;;;6.70;99.90;;;;;;4991910;28;20052;-74
2024/02/14 02:17:24;;;;;;;5.97;3.40;;;6.80;99.90;;;;;;4997779;28;20051;-74
2024/02/14 02:19:53;;;;;;;5.80;2.90;;;6.80;99.90;;;;;;5005654;28;20056;-74
2024/02/14 02:22:18;;;;;;;3.83;3.50;;;6.70;99.90;;;;;;5006780;28;20119;-75
2024/02/14 02:24:45;;;;;;;3.03;2.65;;;6.80;99.90;;;;;;4990712;28;20462;-75
2024/02/14 02:27:13;;;;;;;6.00;3.38;;;6.80;99.90;;;;;;5013100;28;20045;-75
2024/02/14 02:29:39;;;;;;;3.50;3.20;;;6.80;99.90;;;;;;4998912;28;20049;-75
2024/02/14 02:32:06;;;;;;;7.47;3.05;;;6.80;99.90;;;;;;4995624;28;20040;-75
2024/02/14 02:34:32;;;;;;;6.57;3.40;;;6.80;99.90;;;;;;4994897;28;20132;-75
2024/02/14 02:36:57;;;;;;;3.30;3.00;;;6.90;99.90;;;;;;5027057;28;20468;-75
2024/02/14 02:39:23;;;;;;;3.35;2.60;;;6.90;99.90;;;;;;5011609;28;20041;-75
2024/02/14 02:41:49;;;;;;;3.30;3.00;;;6.90;99.90;;;;;;5005608;28;20080;-74
2024/02/14 02:44:15;;;;;;;4.97;3.00;;;6.90;99.90;;;;;;4982972;28;20059;-75
2024/02/14 02:46:41;;;;;;;4.10;2.70;;;6.90;99.90;;;;;;5019989;28;20049;-75
2024/02/14 02:49:07;;;;;;;6.38;2.90;;;6.90;99.90;;;;;;4983579;28;20040;-75
2024/02/14 02:51:33;;;;;;;2.63;2.40;;;6.90;99.90;;;;;;5022389;28;20042;-74
2024/02/14 02:53:59;;;;;;;2.70;2.50;;;6.90;99.90;;;;;;4994048;28;20368;-75
2024/02/14 02:56:27;;;;;;;4.10;2.60;;;7.00;99.90;;;;;;4996864;28;20529;-75
2024/02/14 02:58:55;;;;;;;8.00;2.08;;;7.00;99.90;;;;;;5007089;28;20051;-74
2024/02/14 03:01:23;;;;;;;2.92;2.70;;;7.00;99.90;;;;;;5027285;28;20424;-75
2024/02/14 03:03:49;;;;;;;4.35;2.38;;;7.10;99.90;;;;;;5007578;28;20693;-75
2024/02/14 03:06:15;;;;;;;2.38;2.28;;;7.00;99.90;;;;;;5016397;28;20057;-75
2024/02/14 03:08:40;;;;;;;2.50;2.30;;;7.10;99.90;;;;;;4991124;28;20048;-75
2024/02/14 03:11:07;;;;;;;2.35;2.15;;;7.10;99.90;;;;;;4990697;28;20513;-75
2024/02/14 03:13:35;;;;;;;4.55;2.45;;;7.10;99.90;;;;;;5014374;28;20041;-75
2024/02/14 03:16:00;;;;;;;4.55;2.30;;;7.00;99.90;;;;;;5007092;28;20139;-75
2024/02/14 03:18:26;;;;;;;3.45;1.77;;;7.10;99.90;;;;;;5010429;28;20465;-75
2024/02/14 03:20:53;;;;;;;5.13;2.40;;;7.20;99.90;;;;;;5025324;28;20129;-75
2024/02/14 03:23:19;;;;;;;4.70;2.55;;;7.20;99.90;;;;;;5009504;28;20378;-74
2024/02/14 03:25:45;;;;;;;2.15;2.00;;;7.20;99.90;;;;;;4992944;28;20045;-74
2024/02/14 03:28:13;;;;;;;6.38;2.65;;;7.10;99.90;;;;;;5006163;28;20615;-74
2024/02/14 03:30:41;;;;;;;2.08;1.98;;;7.20;99.90;;;;;;5002385;28;20149;-75
2024/02/14 03:33:10;;;;;;;4.00;2.10;;;7.20;99.90;;;;;;5016521;28;20041;-75
2024/02/14 03:35:36;;;;;;;2.30;2.10;;;7.20;99.90;;;;;;4998040;28;20522;-75
2024/02/14 03:38:03;;;;;;;3.17;2.42;;;7.20;99.90;;;;;;5006727;28;20056;-75
2024/02/14 03:40:30;;;;;;;2.40;2.20;;;7.20;99.90;;;;;;5015846;28;20049;-75
2024/02/14 03:42:56;;;;;;;2.28;2.17;;;7.30;99.90;;;;;;4998260;28;20117;-75
2024/02/14 03:45:22;;;;;;;2.05;1.85;;;7.20;99.90;;;;;;5009727;28;20072;-75
2024/02/14 03:47:48;;;;;;;1.70;1.60;;;7.30;99.90;;;;;;5000911;28;20053;-75
2024/02/14 03:50:15;;;;;;;2.40;2.20;;;7.20;99.90;;;;;;5017502;28;20052;-76
2024/02/14 03:52:42;;;;;;;1.95;1.85;;;7.30;99.90;;;;;;4989866;28;20149;-76
2024/02/14 03:55:13;;;;;;;1.88;1.77;;;7.30;99.90;;;;;;5003538;28;20046;-76
2024/02/14 03:57:39;;;;;;;1.73;1.63;;;7.40;99.90;;;;;;5013975;28;20095;-75
2024/02/14 04:00:08;;;;;;;1.98;1.88;;;7.40;99.90;;;;;;5006664;28;20041;-75
2024/02/14 04:02:35;;;;;;;4.97;1.77;;;7.30;99.90;;;;;;4985859;28;20142;-75
2024/02/14 04:05:02;;;;;;;2.95;1.60;;;7.40;99.90;;;;;;4999287;28;20052;-75
2024/02/14 04:07:29;;;;;;;1.73;1.60;;;7.50;99.90;;;;;;5021980;28;20044;-76
2024/02/14 04:09:55;;;;;;;1.98;1.50;;;7.40;99.90;;;;;;4997919;28;20495;-75
2024/02/14 04:12:21;;;;;;;1.50;1.40;;;7.50;99.90;;;;;;5004645;28;20484;-75
2024/02/14 04:14:47;;;;;;;2.28;1.63;;;7.50;99.90;;;;;;5003202;28;20069;-75
2024/02/14 04:17:14;;;;;;;1.45;1.45;;;7.60;99.90;;;;;;5005069;28;20055;-75
2024/02/14 04:19:43;;;;;;;1.55;1.48;;;7.50;99.90;;;;;;5028830;28;20130;-75
2024/02/14 04:22:09;;;;;;;1.65;1.55;;;7.50;99.90;;;;;;5003467;28;20507;-76
2024/02/14 04:24:34;;;;;;;1.63;1.52;;;7.50;99.90;;;;;;5000532;28;20049;-75
2024/02/14 04:27:02;;;;;;;1.15;1.15;;;7.50;99.90;;;;;;4998435;28;20045;-76
2024/02/14 04:29:30;;;;;;;1.92;1.63;;;7.60;99.90;;;;;;5015783;28;20065;-75
2024/02/14 04:31:56;;;;;;;4.18;1.70;;;7.60;99.90;;;;;;5012656;28;20049;-76
2024/02/14 04:34:23;;;;;;;1.75;1.65;;;7.60;99.90;;;;;;5012952;28;20051;-75
2024/02/14 04:36:48;;;;;;;1.10;1.10;;;7.60;99.90;;;;;;4990080;28;20185;-75
2024/02/14 04:39:14;;;;;;;1.73;1.00;;;7.70;99.90;;;;;;5007267;28;20247;-75
2024/02/14 04:41:40;;;;;;;0.98;0.98;;;7.80;99.90;;;;;;5014494;28;20483;-76
2024/02/14 04:44:08;;;;;;;1.60;1.50;;;7.90;99.90;;;;;;5008783;28;20045;-75
2024/02/14 04:46:35;;;;;;;1.67;1.67;;;7.90;99.90;;;;;;5004809;28;20045;-76
2024/02/14 04:49:02;;;;;;;1.10;1.10;;;8.00;99.90;;;;;;5020969;28;20060;-76
2024/02/14 04:51:30;;;;;;;1.75;1.65;;;8.00;99.90;;;;;;5014790;28;20049;-75
2024/02/14 04:53:58;;;;;;;1.50;1.25;;;8.10;99.90;;;;;;4975742;28;20143;-75
2024/02/14 04:56:26;;;;;;;1.55;1.45;;;8.10;99.90;;;;;;5004192;28;20044;-76
2024/02/14 04:58:53;;;;;;;1.33;1.33;;;8.10;99.90;;;;;;5010515;28;20052;-75
2024/02/14 05:01:19;;;;;;;1.70;1.63;;;8.10;99.90;;;;;;5011213;28;20053;-75
2024/02/14 05:03:44;;;;;;;1.70;1.60;;;8.20;99.90;;;;;;5013019;28;20087;-75
2024/02/14 05:06:10;;;;;;;1.65;1.55;;;8.10;99.90;;;;;;5013738;28;20381;-76
2024/02/14 05:08:36;;;;;;;1.95;1.85;;;8.10;99.90;;;;;;5012426;28;20045;-76
2024/02/14 05:11:03;;;;;;;1.42;1.33;;;8.10;99.90;;;;;;4982897;28;20061;-76
2024/02/14 05:13:30;;;;;;;1.48;1.38;;;8.10;99.90;;;;;;5012633;28;20117;-75
2024/02/14 05:15:56;;;;;;;1.50;1.40;;;8.10;99.90;;;;;;4997321;28;20085;-75
2024/02/14 05:18:22;;;;;;;1.15;1.15;;;8.20;99.90;;;;;;5004385;28;20442;-75
2024/02/14 05:20:48;;;;;;;1.50;1.40;;;8.20;99.90;;;;;;4995287;28;20126;-76
2024/02/14 05:23:13;;;;;;;1.48;1.48;;;8.20;99.90;;;;;;5013085;28;20041;-76
2024/02/14 05:25:39;;;;;;;1.60;1.50;;;8.20;99.90;;;;;;4999851;28;20404;-75
2024/02/14 05:28:05;;;;;;;1.42;1.33;;;8.30;99.90;;;;;;5021110;28;20123;-75
2024/02/14 05:30:31;;;;;;;1.65;1.55;;;8.30;99.90;;;;;;5006264;28;20463;-76
2024/02/14 05:32:57;;;;;;;1.48;1.48;;;8.30;99.90;;;;;;5005328;28;20446;-75
2024/02/14 05:35:23;;;;;;;1.40;1.40;;;8.30;99.90;;;;;;5019953;28;20045;-75
2024/02/14 05:37:50;;;;;;;1.23;1.23;;;8.40;99.90;;;;;;5005549;28;20128;-75
2024/02/14 05:40:16;;;;;;;1.33;1.33;;;8.30;99.90;;;;;;5015276;28;20068;-75
2024/02/14 05:42:43;;;;;;;1.70;1.60;;;8.40;99.90;;;;;;5001595;28;21876;-75
2024/02/14 05:45:09;;;;;;;1.70;1.65;;;8.40;99.90;;;;;;5011636;28;20094;-75
2024/02/14 05:47:35;;;;;;;1.48;1.45;;;8.50;99.90;;;;;;5020564;28;20041;-76
2024/02/14 05:50:01;;;;;;;1.50;1.50;;;8.50;99.90;;;;;;5010342;28;20041;-76
2024/02/14 05:52:27;;;;;;;1.52;1.42;;;8.50;99.90;;;;;;5007086;28;20467;-75
2024/02/14 05:54:54;;;;;;;1.50;1.40;;;8.50;99.90;;;;;;5016374;28;20331;-76
2024/02/14 05:57:19;;;;;;;4.82;1.50;;;8.60;99.90;;;;;;4999416;28;20068;-76
2024/02/14 05:59:45;;;;;;;1.80;1.70;;;8.70;99.90;;;;;;5004220;28;20041;-75
2024/02/14 06:02:11;;;;;;;1.73;1.63;;;8.70;99.90;;;;;;5038442;28;20037;-75
2024/02/14 06:04:37;;;;;;;1.33;1.27;;;8.60;99.90;;;;;;4988600;28;20040;-76
2024/02/14 06:07:05;;;;;;;1.83;1.73;;;8.70;99.90;;;;;;5005415;28;20049;-76
2024/02/14 06:09:32;;;;;;;1.98;1.88;;;8.70;99.90;;;;;;4991334;28;20144;-76
2024/02/14 06:11:58;;;;;;;1.60;1.52;;;8.80;99.90;;;;;;5012475;28;20053;-76
2024/02/14 06:14:24;;;;;;;1.38;1.38;;;8.80;99.90;;;;;;5003518;28;20457;-76
2024/02/14 06:16:52;;;;;;;1.65;1.60;;;8.90;99.90;;;;;;5018570;28;20109;-76
2024/02/14 06:19:17;;;;;;;1.60;1.50;;;8.80;99.90;;;;;;5024410;28;20064;-75
2024/02/14 06:21:43;;;;;;;1.73;1.63;;;8.80;99.90;;;;;;5017260;28;20045;-75
2024/02/14 06:24:13;;;;;;;1.63;1.63;;;8.90;99.90;;;;;;5008818;28;20526;-76
2024/02/14 06:26:38;;;;;;;1.45;1.45;;;8.90;99.90;;;;;;5022542;28;20044;-76
2024/02/14 06:29:04;;;;;;;1.25;1.17;;;9.00;99.90;;;;;;5008776;28;20102;-76
2024/02/14 06:31:30;;;;;;;1.65;1.55;;;8.90;99.90;;;;;;4997257;28;20079;-76
2024/02/14 06:33:56;;;;;;;1.90;1.80;;;8.90;99.90;;;;;;5024875;28;20140;-76
2024/02/14 06:36:22;;;;;;;1.60;1.55;;;9.10;99.90;;;;;;5027313;28;20063;-76
2024/02/14 06:38:50;;;;;;;1.25;1.25;;;9.10;99.90;;;;;;4979825;28;20463;-76
2024/02/14 06:41:15;;;;;;;1.60;1.50;;;9.00;99.90;;;;;;5017926;28;20075;-76
2024/02/14 06:43:41;;;;;;;1.58;1.48;;;9.10;99.90;;;;;;5016196;28;20531;-76
2024/02/14 06:46:07;;;;;;;1.95;1.67;;;9.10;99.90;;;;;;5002901;28;20377;-76
2024/02/14 06:48:33;;;;;;;1.40;1.40;;;9.20;99.90;;;;;;5007014;28;20120;-76
2024/02/14 06:50:59;;;;;;;1.50;1.40;;;9.20;99.90;;;;;;4994015;28;20038;-76
2024/02/14 06:53:25;;;;;;;1.90;1.80;;;9.20;99.90;;;;;;5001361;28;20041;-76
2024/02/14 06:55:51;;;;;;;2.30;2.10;;;9.10;99.90;;;;;;4991798;28;20415;-76
2024/02/14 06:58:17;;;;;;;2.50;2.30;;;9.20;99.90;;;;;;4999495;28;20033;-76
2024/02/14 07:00:44;;;;;;;2.08;1.67;;;9.20;99.90;;;;;;5002652;28;20037;-76
2024/02/14 07:03:10;;;;;;;1.90;1.80;;;9.20;99.90;;;;;;5007945;28;20040;-76
2024/02/14 07:05:35;;;;;;;1.83;1.73;;;9.20;99.90;;;;;;5015938;28;20059;-76
2024/02/14 07:08:01;;;;;;;1.95;1.70;;;9.20;99.90;;;;;;5000537;28;20045;-76
2024/02/14 07:10:27;;;;;;;1.83;1.70;;;9.20;99.90;;;;;;5013389;28;20094;-76
2024/02/14 07:12:53;;;;;;;1.63;1.30;;;9.20;99.90;;;;;;4990220;28;20045;-76
2024/02/14 07:15:19;;;;;;;2.58;1.83;;;9.30;99.90;;;;;;5024171;28;20123;-76
2024/02/14 07:17:45;;;;;;;2.17;1.85;;;9.30;99.90;;;;;;5002450;28;20053;-76
2024/02/14 07:20:12;;;;;;;5.07;2.05;;;9.30;99.90;;;;;;5011471;28;20088;-76
2024/02/14 07:22:38;;;;;;;2.17;1.98;;;9.30;99.90;;;;;;4990282;28;20136;-76
2024/02/14 07:25:04;;;;;;;4.63;2.17;;;9.40;99.90;;;;;;5021021;28;20392;-76
2024/02/14 07:27:30;;;;;;;5.75;2.40;;;9.30;99.90;;;;;;5027148;28;20045;-76
2024/02/14 07:29:56;;;;;;;12.57;2.75;;;9.40;99.90;;;;;;5003888;28;20416;-76
2024/02/14 07:32:22;;;;;;;6.28;2.72;;;9.30;99.90;;;;;;5018005;28;20439;-76
2024/02/14 07:34:48;;;;;;;19.17;3.20;;;9.50;99.90;;;;;;5017947;28;20099;-76
2024/02/14 07:37:15;;;;;;;2.03;1.35;;;9.50;99.90;;;;;;4996918;28;20055;-76
2024/02/14 07:39:41;;;;;;;12.38;2.50;;;9.50;99.90;;;;;;5001204;28;20041;-76
2024/02/14 07:42:07;;;;;;;15.73;2.90;;;9.50;99.90;;;;;;4986412;28;20262;-76
2024/02/14 07:44:33;;;;;;;12.48;2.25;;;9.50;99.90;;;;;;4988250;28;20092;-76
2024/02/14 07:46:59;;;;;;;14.63;3.75;;;9.60;99.90;;;;;;4991562;28;20127;-76
2024/02/14 07:49:24;;;;;;;15.50;2.30;;;9.60;99.90;;;;;;5006120;28;20044;-76
2024/02/14 07:51:50;;;;;;;29.70;5.03;;;9.60;99.90;;;;;;4999637;28;20475;-76
2024/02/14 07:54:16;;;;;;;17.98;2.63;;;9.70;99.90;;;;;;4999537;28;20049;-76
2024/02/14 07:56:41;;;;;;;10.52;1.85;;;9.60;99.90;;;;;;4993322;28;20033;-77
2024/02/14 07:59:07;;;;;;;14.30;2.95;;;9.70;99.90;;;;;;5019943;28;20091;-76
2024/02/14 08:01:33;;;;;;;14.43;3.10;;;9.80;99.90;;;;;;5006721;28;20049;-77
2024/02/14 08:03:59;;;;;;;4.70;1.58;;;9.70;99.90;;;;;;5011010;28;20671;-77
2024/02/14 08:06:25;;;;;;;19.73;3.20;;;9.80;99.90;;;;;;5011262;28;20504;-77
2024/02/14 08:08:54;;;;;;;20.08;3.10;;;9.80;99.90;;;;;;5004157;28;20041;-76
2024/02/14 08:11:20;;;;;;;21.45;2.78;;;9.90;99.90;;;;;;5000133;28;20747;-76
2024/02/14 08:13:45;;;;;;;8.70;1.27;;;9.80;99.90;;;;;;4998211;28;20127;-77
2024/02/14 08:16:12;;;;;;;18.30;2.70;;;9.80;99.90;;;;;;5026676;28;20091;-77
2024/02/14 08:18:39;;;;;;;13.25;2.45;;;9.90;99.90;;;;;;5020336;28;20033;-77
2024/02/14 08:21:06;;;;;;;16.52;3.17;;;9.90;99.90;;;;;;5003294;28;20124;-77
2024/02/14 08:23:34;;;;;;;12.50;2.38;;;9.90;99.90;;;;;;5001661;28;20041;-77
2024/02/14 08:26:00;;;;;;;18.67;3.05;;;9.90;99.90;;;;;;5003754;28;20048;-77
2024/02/14 08:28:26;;;;;;;20.23;2.20;;;9.90;99.90;;;;;;4984458;28;20420;-77
2024/02/14 08:30:53;;;;;;;22.35;3.08;;;9.90;99.90;;;;;;5010441;28;20072;-78
2024/02/14 08:33:19;;;;;;;16.50;3.38;;;10.00;99.90;;;;;;4999633;28;20049;-78
2024/02/14 08:35:47;;;;;;;20.02;3.45;;;10.00;99.90;;;;;;4995880;28;20316;-77
2024/02/14 08:38:12;;;;;;;24.95;3.42;;;10.00;99.90;;;;;;5019830;28;20052;-78
2024/02/14 08:40:38;;;;;;;21.75;3.22;;;10.00;99.90;;;;;;4982460;28;20041;-77
2024/02/14 08:43:04;;;;;;;24.27;3.25;;;10.10;99.90;;;;;;4990791;28;20049;-78
2024/02/14 08:45:31;;;;;;;13.23;2.55;;;10.00;99.90;;;;;;5015372;28;20431;-77
2024/02/14 08:47:57;;;;;;;18.30;2.80;;;10.00;99.90;;;;;;5001476;28;20049;-77
2024/02/14 08:50:23;;;;;;;19.35;2.67;;;10.00;99.90;;;;;;4990975;28;20044;-77
2024/02/14 08:52:48;;;;;;;17.05;3.25;;;10.00;99.90;;;;;;4997359;28;20391;-77
2024/02/14 08:55:17;;;;;;;29.90;4.10;;;10.20;99.90;;;;;;5015273;28;20374;-77
2024/02/14 08:57:44;;;;;;;28.30;3.50;;;10.20;99.90;;;;;;5015793;28;20499;-76
2024/02/14 09:00:10;;;;;;;35.25;4.05;;;10.20;99.90;;;;;;4987530;28;20045;-78
2024/02/14 09:02:36;;;;;;;30.05;4.18;;;10.30;99.90;;;;;;5006460;28;20045;-77
2024/02/14 09:05:05;;;;;;;37.08;4.75;;;10.30;99.90;;;;;;5002818;28;20048;-76
2024/02/14 09:07:33;;;;;;;26.23;3.65;;;10.30;99.90;;;;;;5021615;28;20055;-76
2024/02/14 09:10:00;;;;;;;21.92;3.50;;;10.30;99.90;;;;;;5013127;28;20040;-76
2024/02/14 09:12:25;;;;;;;28.67;3.03;;;10.40;99.90;;;;;;5015871;28;20072;-77
2024/02/14 09:14:51;;;;;;;7.45;2.38;;;10.30;99.90;;;;;;4996280;28;20848;-77
2024/02/14 09:17:17;;;;;;;26.25;5.25;;;10.40;99.90;;;;;;5005784;28;20052;-77
2024/02/14 09:19:43;;;;;;;31.88;3.75;;;10.50;99.90;;;;;;4991999;28;20484;-74
2024/02/14 09:22:09;;;;;;;28.85;5.03;;;10.50;99.90;;;;;;5013124;28;20049;-75
2024/02/14 09:24:35;;;;;;;21.65;3.22;;;10.40;99.90;;;;;;5005286;28;20072;-75
2024/02/14 09:27:02;;;;;;;39.25;5.03;;;10.50;99.90;;;;;;5021651;28;20127;-74
2024/02/14 09:29:29;;;;;;;23.00;3.85;;;10.50;99.90;;;;;;5002551;28;20495;-76
2024/02/14 09:31:54;;;;;;;26.05;4.25;;;10.50;99.90;;;;;;5001817;28;20053;-76
2024/02/14 09:34:21;;;;;;;33.53;4.50;;;10.50;99.90;;;;;;5004661;28;20400;-76
2024/02/14 09:36:52;;;;;;;24.98;4.30;;;10.50;99.90;;;;;;5013415;28;20037;-76
2024/02/14 09:39:18;;;;;;;29.85;4.28;;;10.50;99.90;;;;;;5027358;28;20061;-76
2024/02/14 09:41:47;;;;;;;14.50;3.60;;;10.60;99.90;;;;;;4996193;28;20053;-76
2024/02/14 09:44:13;;;;;;;22.15;3.55;;;10.50;99.90;;;;;;5016240;28;20048;-76
2024/02/14 09:46:41;;;;;;;20.38;4.03;;;10.50;99.90;;;;;;4987762;28;20466;-76
2024/02/14 09:49:08;;;;;;;23.98;4.05;;;10.60;99.90;;;;;;5006048;28;20134;-75
2024/02/14 09:51:36;;;;;;;16.27;3.70;;;10.60;99.90;;;;;;5002593;28;20045;-75
2024/02/14 09:54:02;;;;;;;31.85;5.13;;;10.60;99.90;;;;;;5010431;28;20049;-75
2024/02/14 09:56:28;;;;;;;15.52;3.55;;;10.60;99.90;;;;;;4987512;28;20071;-75
2024/02/14 09:58:56;;;;;;;19.25;4.47;;;10.70;99.90;;;;;;4989848;28;20517;-75
2024/02/14 10:01:23;;;;;;;25.90;4.25;;;10.70;99.90;;;;;;4999868;28;20125;-75
2024/02/14 10:03:51;;;;;;;21.67;4.18;;;10.70;99.90;;;;;;4991128;28;20041;-75
2024/02/14 10:06:21;;;;;;;19.90;4.97;;;10.70;99.90;;;;;;5016883;28;20036;-75
2024/02/14 10:08:48;;;;;;;;;;;10.70;99.90;;;;;;5014923;28;20045;-75
2024/02/14 10:11:15;;;;;;;16.90;4.60;;;10.70;99.90;;;;;;5001037;28;19925;-75
2024/02/14 10:13:45;;;;;;;31.55;4.45;;;10.70;99.90;;;;;;5003478;28;20446;-76
2024/02/14 10:16:12;;;;;;;;;;;10.60;99.90;;;;;;4996481;28;20060;-75
2024/02/14 10:18:39;;;;;;;26.30;4.40;;;10.70;99.90;;;;;;5029375;28;19921;-75
2024/02/14 10:21:05;;;;;;;16.55;4.32;;;10.60;99.90;;;;;;5007738;28;20041;-75
2024/02/14 10:23:32;;;;;;;19.77;4.15;;;10.70;99.90;;;;;;4986500;28;20041;-75
2024/02/14 10:25:58;;;;;;;21.05;4.10;;;10.70;99.90;;;;;;5018039;28;20049;-75
2024/02/14 10:28:24;;;;;;;19.65;3.70;;;10.70;99.90;;;;;;5003582;28;20434;-75
2024/02/14 10:30:50;;;;;;;17.80;3.97;;;10.70;99.90;;;;;;5021513;28;20176;-75
2024/02/14 10:33:16;;;;;;;15.50;4.05;;;10.70;99.90;;;;;;5017436;28;20045;-75
2024/02/14 10:35:42;;;;;;;17.70;3.65;;;10.80;99.90;;;;;;5005197;28;20049;-75
2024/02/14 10:38:12;;;;;;;13.82;2.97;;;10.70;99.90;;;;;;5022082;28;20059;-75
2024/02/14 10:40:38;;;;;;;17.05;2.90;;;10.70;99.90;;;;;;4982865;28;20041;-76
2024/02/14 10:43:11;;;;;;;18.02;3.60;;;10.70;99.90;;;;;;5014545;28;20103;-75
2024/02/14 10:45:37;;;;;;;23.42;3.88;;;10.70;99.90;;;;;;5014895;28;20045;-75
2024/02/14 10:48:08;;;;;;;16.02;3.33;;;10.70;99.90;;;;;;5003223;28;20408;-75
2024/02/14 10:50:37;;;;;;;17.33;2.78;;;10.70;99.90;;;;;;5001676;28;20181;-75
2024/02/14 10:53:05;;;;;;;22.13;3.63;;;10.80;99.90;;;;;;4971430;28;20041;-75
2024/02/14 10:55:32;;;;;;;12.75;2.70;;;10.80;99.90;;;;;;5003758;28;20839;-75
2024/02/14 10:58:00;;;;;;;20.50;3.00;;;10.80;99.90;;;;;;5022829;28;20040;-75
2024/02/14 11:00:26;;;;;;;14.25;2.88;;;10.80;99.90;;;;;;5003646;28;20037;-75
2024/02/14 11:02:53;;;;;;;12.73;1.90;;;10.90;99.90;;;;;;5008125;28;20049;-75
2024/02/14 11:05:23;;;;;;;16.40;2.85;;;10.90;99.90;;;;;;5015521;28;20098;-75
2024/02/14 11:07:52;;;;;;;10.63;3.03;;;10.90;99.90;;;;;;5018391;28;20049;-75
2024/02/14 11:10:20;;;;;;;8.00;3.03;;;10.80;99.90;;;;;;5008702;28;20107;-75
2024/02/14 11:12:49;;;;;;;13.10;3.40;;;10.80;99.90;;;;;;4987939;28;20048;-75
2024/02/14 11:15:44;;;;;;;24.08;4.30;;;10.90;99.90;;;;;;5014711;28;20055;-75
2024/02/14 11:18:32;;;;;;;14.88;4.10;;;10.80;99.90;;;;;;5005481;28;20045;-75
2024/02/14 11:24:40;;;;;;;18.65;3.88;;;10.90;99.90;;;;;;5031684;28;20032;-75
2024/02/14 11:27:22;;;;;;;13.40;3.00;;;10.90;99.90;;;;;;4993403;28;20144;-73
2024/02/14 11:33:40;;;;;;;12.43;2.92;;;10.90;99.90;;;;;;5020988;28;20494;-74
2024/02/14 11:41:45;;;;;;;10.13;1.88;;;10.90;99.90;;;;;;4995027;28;20056;-77
2024/02/14 11:44:14;;;;;;;6.45;1.60;;;11.10;99.90;;;;;;4972190;28;20056;-76
2024/02/14 11:47:12;;;;;;;9.98;2.45;;;11.00;99.90;;;;;;4985211;28;20485;-76
2024/02/14 11:49:42;;;;;;;16.58;2.40;;;11.10;99.90;;;;;;4990392;23;20473;-76
2024/02/14 11:52:22;;;;;;;11.63;1.83;;;11.20;99.90;;;;;;4954781;28;20076;-77
2024/02/14 11:55:53;;;;;;;3.42;2.20;;;11.20;99.90;;;;;;4991790;28;20140;-77
2024/02/14 12:01:14;;;;;;;3.47;1.70;;;11.20;99.90;;;;;;4248929;22;19959;-75
2024/02/14 12:03:41;;;;;;;4.13;1.58;;;11.30;99.90;;;;;;5060959;28;20477;-75
2024/02/14 12:06:09;;;;;;;6.70;1.90;;;11.30;99.90;;;;;;5070012;28;20052;-75
2024/02/14 12:08:37;;;;;;;5.38;2.25;;;11.30;99.90;;;;;;5054038;28;20048;-74
2024/02/14 12:11:03;;;;;;;7.47;2.38;;;11.30;99.90;;;;;;5061141;28;20052;-75
2024/02/14 12:13:37;;;;;;;5.47;2.47;;;11.30;99.90;;;;;;5035967;28;20335;-74
2024/02/14 12:16:06;;;;;;;6.70;2.63;;;11.30;99.90;;;;;;5038676;28;20048;-74
2024/02/14 12:19:01;;;;;;;5.50;2.90;;;11.40;99.90;;;;;;5061752;28;20048;-74
2024/02/14 12:21:26;;;;;;;4.45;2.40;;;11.30;99.90;;;;;;5059054;28;20433;-75
2024/02/14 12:23:58;;;;;;;3.55;2.55;;;11.30;99.90;;;;;;5056374;28;20401;-75
2024/02/14 12:26:32;;;;;;;3.90;2.53;;;11.40;99.90;;;;;;5053712;28;20032;-75
2024/02/14 12:29:30;;;;;;;3.55;1.90;;;11.30;99.90;;;;;;5058007;23;20143;-75
2024/02/14 12:32:09;;;;;;;8.68;2.20;;;11.30;99.90;;;;;;5021379;28;20060;-75
2024/02/14 12:35:27;;;;;;;8.73;1.02;;;11.30;99.90;;;;;;5023365;28;20072;-75
2024/02/14 12:37:53;;;;;;;9.00;2.10;;;11.40;99.90;;;;;;5017241;28;20099;-75
2024/02/14 12:40:20;;;;;;;4.07;2.03;;;11.30;99.90;;;;;;5015818;28;20487;-75
2024/02/14 12:42:45;;;;;;;2.05;1.63;;;11.40;99.90;;;;;;5000029;28;20456;-75
2024/02/14 12:45:11;;;;;;;1.65;1.65;;;11.40;99.90;;;;;;5018544;28;20045;-75
2024/02/14 12:47:37;;;;;;;7.95;1.73;;;11.50;99.90;;;;;;4994227;28;20412;-75
2024/02/14 12:50:07;;;;;;;1.60;1.55;;;11.50;99.90;;;;;;5017449;28;20045;-74
2024/02/14 12:52:33;;;;;;;1.53;1.50;;;11.60;99.90;;;;;;5003409;28;20118;-75
2024/02/14 12:55:00;;;;;;;1.38;1.38;;;11.60;99.90;;;;;;5001231;28;20312;-74
2024/02/14 12:57:25;;;;;;;2.15;1.98;;;11.50;99.90;;;;;;4991968;28;20606;-74
2024/02/14 12:59:51;;;;;;;1.45;1.45;;;11.60;99.90;;;;;;5017516;28;20194;-75
2024/02/14 13:02:18;;;;;;;3.60;1.25;;;11.50;99.90;;;;;;4988507;28;20045;-74
2024/02/14 13:04:44;;;;;;;1.92;1.80;;;11.60;99.90;;;;;;5020944;28;20040;-75
2024/02/14 13:07:12;;;;;;;2.00;1.90;;;11.60;99.90;;;;;;5022027;28;20056;-74